sensor_id;sensor_type;location;lat;lon;timestamp;noise_LAeq;noise_LA_min;noise_LA_max;noise_LA01;noise_LA95
72686;Laerm;61365;52.162;4.500;2023-04-07T00:02:06;46.44;37.10;58.70;;
72686;Laerm;61365;52.162;4.500;2023-04-07T00:04:32;46.48;37.16;57.18;;
72686;Laerm;61365;52.162;4.500;2023-04-07T00:06:58;46.54;37.77;56.99;;
72686;Laerm;61365;52.162;4.500;2023-04-07T00:09:24;46.53;37.38;58.78;;
72686;Laerm;61365;52.162;4.500;2023-04-07T00:11:50;46.35;37.54;57.99;;
72686;Laerm;61365;52.162;4.500;2023-04-07T00:14:17;46.52;37.34;57.20;;
72686;Laerm;61365;52.162;4.500;2023-04-07T00:16:43;46.55;37.90;57.77;;
72686;Laerm;61365;52.162;4.500;2023-04-07T00:19:09;46.66;37.85;58.81;;
72686;Laerm;61365;52.162;4.500;2023-04-07T00:21:35;46.54;37.46;57.57;;
72686;Laerm;61365;52.162;4.500;2023-04-07T00:24:01;46.51;37.31;57.57;;
72686;Laerm;61365;52.162;4.500;2023-04-07T00:26:27;46.47;37.44;59.03;;
72686;Laerm;61365;52.162;4.500;2023-04-07T00:28:57;46.53;37.44;60.24;;
72686;Laerm;61365;52.162;4.500;2023-04-07T00:31:23;46.53;37.41;57.94;;
72686;Laerm;61365;52.162;4.500;2023-04-07T00:33:49;46.55;36.20;59.84;;
72686;Laerm;61365;52.162;4.500;2023-04-07T00:36:15;46.31;38.13;57.45;;
72686;Laerm;61365;52.162;4.500;2023-04-07T00:38:41;46.60;38.86;59.04;;
72686;Laerm;61365;52.162;4.500;2023-04-07T00:41:08;46.39;37.51;59.02;;
72686;Laerm;61365;52.162;4.500;2023-04-07T00:43:34;46.39;37.36;58.57;;
72686;Laerm;61365;52.162;4.500;2023-04-07T00:46:00;46.37;37.10;59.84;;
72686;Laerm;61365;52.162;4.500;2023-04-07T00:48:26;46.38;36.93;58.77;;
72686;Laerm;61365;52.162;4.500;2023-04-07T00:50:52;46.51;37.40;57.91;;
72686;Laerm;61365;52.162;4.500;2023-04-07T00:53:19;46.57;37.17;58.31;;
72686;Laerm;61365;52.162;4.500;2023-04-07T00:55:45;46.43;37.54;58.41;;
72686;Laerm;61365;52.162;4.500;2023-04-07T00:58:12;46.49;37.53;57.85;;
72686;Laerm;61365;52.162;4.500;2023-04-07T01:01:03;46.37;36.80;57.99;;
72686;Laerm;61365;52.162;4.500;2023-04-07T01:03:47;46.50;37.18;58.68;;
72686;Laerm;61365;52.162;4.500;2023-04-07T01:06:16;46.60;36.81;58.61;;
72686;Laerm;61365;52.162;4.500;2023-04-07T01:09:18;46.48;37.16;58.80;;
72686;Laerm;61365;52.162;4.500;2023-04-07T01:14:50;46.52;38.17;58.29;;
72686;Laerm;61365;52.162;4.500;2023-04-07T01:17:18;46.47;37.12;58.10;;
72686;Laerm;61365;52.162;4.500;2023-04-07T01:19:56;46.35;37.68;58.54;;
72686;Laerm;61365;52.162;4.500;2023-04-07T01:22:29;46.48;37.11;58.55;;
72686;Laerm;61365;52.162;4.500;2023-04-07T01:25:14;46.99;37.23;57.96;;
72686;Laerm;61365;52.162;4.500;2023-04-07T01:30:31;47.80;35.42;58.31;;
72686;Laerm;61365;52.162;4.500;2023-04-07T01:32:59;47.71;35.15;57.88;;
72686;Laerm;61365;52.162;4.500;2023-04-07T01:35:28;47.81;35.61;57.39;;
72686;Laerm;61365;52.162;4.500;2023-04-07T01:37:56;47.91;36.01;57.92;;
72686;Laerm;61365;52.162;4.500;2023-04-07T01:40:23;47.62;35.59;56.72;;
72686;Laerm;61365;52.162;4.500;2023-04-07T01:42:51;47.67;35.05;58.06;;
72686;Laerm;61365;52.162;4.500;2023-04-07T01:45:19;47.72;36.28;58.23;;
72686;Laerm;61365;52.162;4.500;2023-04-07T01:47:46;47.64;35.79;57.39;;
72686;Laerm;61365;52.162;4.500;2023-04-07T01:50:12;47.74;34.91;57.74;;
72686;Laerm;61365;52.162;4.500;2023-04-07T01:52:39;47.43;34.85;57.41;;
72686;Laerm;61365;52.162;4.500;2023-04-07T01:55:06;47.40;35.64;57.39;;
72686;Laerm;61365;52.162;4.500;2023-04-07T01:57:34;46.47;37.60;58.37;;
72686;Laerm;61365;52.162;4.500;2023-04-07T02:00:01;46.46;37.76;57.81;;
72686;Laerm;61365;52.162;4.500;2023-04-07T02:02:27;46.58;37.32;58.42;;
72686;Laerm;61365;52.162;4.500;2023-04-07T02:04:55;46.42;37.04;58.09;;
72686;Laerm;61365;52.162;4.500;2023-04-07T02:07:51;46.41;37.78;57.72;;
72686;Laerm;61365;52.162;4.500;2023-04-07T02:10:21;46.54;38.25;58.31;;
72686;Laerm;61365;52.162;4.500;2023-04-07T02:12:48;46.51;37.65;58.39;;
72686;Laerm;61365;52.162;4.500;2023-04-07T02:15:15;46.45;38.16;58.74;;
72686;Laerm;61365;52.162;4.500;2023-04-07T02:17:45;46.45;37.30;61.07;;
72686;Laerm;61365;52.162;4.500;2023-04-07T02:20:14;46.48;37.42;58.59;;
72686;Laerm;61365;52.162;4.500;2023-04-07T02:22:41;46.52;37.81;58.62;;
72686;Laerm;61365;52.162;4.500;2023-04-07T02:27:48;46.59;37.08;57.65;;
72686;Laerm;61365;52.162;4.500;2023-04-07T02:30:14;46.46;36.38;57.78;;
72686;Laerm;61365;52.162;4.500;2023-04-07T02:32:41;46.61;37.58;58.38;;
72686;Laerm;61365;52.162;4.500;2023-04-07T02:35:07;46.47;37.47;57.33;;
72686;Laerm;61365;52.162;4.500;2023-04-07T02:37:33;46.63;37.17;58.20;;
72686;Laerm;61365;52.162;4.500;2023-04-07T02:39:59;47.46;36.10;57.50;;
72686;Laerm;61365;52.162;4.500;2023-04-07T02:42:25;47.41;35.03;58.06;;
72686;Laerm;61365;52.162;4.500;2023-04-07T02:44:51;47.80;35.66;57.68;;
72686;Laerm;61365;52.162;4.500;2023-04-07T02:47:17;47.52;36.04;57.77;;
72686;Laerm;61365;52.162;4.500;2023-04-07T02:49:43;51.02;32.17;72.67;;
72686;Laerm;61365;52.162;4.500;2023-04-07T02:52:11;47.25;35.46;61.64;;
72686;Laerm;61365;52.162;4.500;2023-04-07T02:54:37;43.86;36.03;55.31;;
72686;Laerm;61365;52.162;4.500;2023-04-07T02:57:03;43.51;34.98;56.63;;
72686;Laerm;61365;52.162;4.500;2023-04-07T02:59:29;43.73;33.99;63.08;;
72686;Laerm;61365;52.162;4.500;2023-04-07T03:01:55;43.77;34.67;61.51;;
72686;Laerm;61365;52.162;4.500;2023-04-07T03:04:21;43.63;35.39;62.47;;
72686;Laerm;61365;52.162;4.500;2023-04-07T03:06:48;44.44;34.34;64.98;;
72686;Laerm;61365;52.162;4.500;2023-04-07T03:09:14;45.69;32.98;59.49;;
72686;Laerm;61365;52.162;4.500;2023-04-07T03:11:40;47.14;34.05;66.20;;
72686;Laerm;61365;52.162;4.500;2023-04-07T03:14:09;47.06;33.82;61.25;;
72686;Laerm;61365;52.162;4.500;2023-04-07T03:16:35;46.49;33.49;69.09;;
72686;Laerm;61365;52.162;4.500;2023-04-07T03:19:01;47.69;41.51;52.56;;
72686;Laerm;61365;52.162;4.500;2023-04-07T03:21:27;47.57;41.89;51.62;;
72686;Laerm;61365;52.162;4.500;2023-04-07T03:23:54;48.20;40.57;52.14;;
72686;Laerm;61365;52.162;4.500;2023-04-07T03:26:20;49.28;41.64;52.88;;
72686;Laerm;61365;52.162;4.500;2023-04-07T03:28:46;48.86;41.63;53.31;;
72686;Laerm;61365;52.162;4.500;2023-04-07T03:31:12;48.95;37.35;52.61;;
72686;Laerm;61365;52.162;4.500;2023-04-07T03:33:38;49.04;41.44;52.30;;
72686;Laerm;61365;52.162;4.500;2023-04-07T03:36:05;49.49;42.63;52.67;;
72686;Laerm;61365;52.162;4.500;2023-04-07T03:38:31;49.22;44.15;52.30;;
72686;Laerm;61365;52.162;4.500;2023-04-07T03:40:57;49.64;43.65;52.43;;
72686;Laerm;61365;52.162;4.500;2023-04-07T03:43:23;49.50;41.70;52.85;;
72686;Laerm;61365;52.162;4.500;2023-04-07T03:45:52;49.67;43.47;52.88;;
72686;Laerm;61365;52.162;4.500;2023-04-07T03:48:18;49.56;44.67;52.67;;
72686;Laerm;61365;52.162;4.500;2023-04-07T03:50:44;49.55;45.03;52.65;;
72686;Laerm;61365;52.162;4.500;2023-04-07T03:53:11;49.70;44.39;52.54;;
72686;Laerm;61365;52.162;4.500;2023-04-07T03:55:40;49.79;43.82;53.80;;
72686;Laerm;61365;52.162;4.500;2023-04-07T03:58:06;49.72;43.24;52.66;;
72686;Laerm;61365;52.162;4.500;2023-04-07T04:00:32;49.71;44.67;52.59;;
72686;Laerm;61365;52.162;4.500;2023-04-07T04:02:59;49.73;43.89;52.87;;
72686;Laerm;61365;52.162;4.500;2023-04-07T04:05:25;49.67;43.53;53.18;;
72686;Laerm;61365;52.162;4.500;2023-04-07T04:07:52;49.78;44.50;52.74;;
72686;Laerm;61365;52.162;4.500;2023-04-07T04:10:18;49.68;43.34;53.12;;
72686;Laerm;61365;52.162;4.500;2023-04-07T04:12:46;49.38;44.15;52.85;;
72686;Laerm;61365;52.162;4.500;2023-04-07T04:15:13;49.62;43.44;53.59;;
72686;Laerm;61365;52.162;4.500;2023-04-07T04:17:40;49.23;43.47;52.53;;
72686;Laerm;61365;52.162;4.500;2023-04-07T04:20:07;48.66;42.75;52.92;;
72686;Laerm;61365;52.162;4.500;2023-04-07T04:22:34;48.65;42.94;53.18;;
72686;Laerm;61365;52.162;4.500;2023-04-07T04:25:00;48.73;43.53;53.21;;
72686;Laerm;61365;52.162;4.500;2023-04-07T04:27:27;48.35;43.00;52.28;;
72686;Laerm;61365;52.162;4.500;2023-04-07T04:29:53;48.41;42.11;53.35;;
72686;Laerm;61365;52.162;4.500;2023-04-07T04:32:19;48.50;43.30;52.06;;
72686;Laerm;61365;52.162;4.500;2023-04-07T04:34:46;48.33;41.26;52.22;;
72686;Laerm;61365;52.162;4.500;2023-04-07T04:37:12;48.05;43.80;51.99;;
72686;Laerm;61365;52.162;4.500;2023-04-07T04:39:38;47.82;42.92;52.93;;
72686;Laerm;61365;52.162;4.500;2023-04-07T04:42:04;48.31;43.25;53.03;;
72686;Laerm;61365;52.162;4.500;2023-04-07T04:44:30;47.64;40.55;52.35;;
72686;Laerm;61365;52.162;4.500;2023-04-07T04:46:56;47.80;40.24;52.61;;
72686;Laerm;61365;52.162;4.500;2023-04-07T04:49:22;47.89;41.91;52.58;;
72686;Laerm;61365;52.162;4.500;2023-04-07T04:51:48;47.79;37.27;52.03;;
72686;Laerm;61365;52.162;4.500;2023-04-07T04:54:15;47.86;40.78;51.31;;
72686;Laerm;61365;52.162;4.500;2023-04-07T04:56:41;47.96;41.08;52.56;;
72686;Laerm;61365;52.162;4.500;2023-04-07T04:59:07;48.05;41.36;52.64;;
72686;Laerm;61365;52.162;4.500;2023-04-07T05:01:33;48.13;40.30;53.17;;
72686;Laerm;61365;52.162;4.500;2023-04-07T05:04:00;48.25;42.45;52.92;;
72686;Laerm;61365;52.162;4.500;2023-04-07T05:06:26;49.30;43.04;52.29;;
72686;Laerm;61365;52.162;4.500;2023-04-07T05:08:53;49.08;42.35;52.92;;
72686;Laerm;61365;52.162;4.500;2023-04-07T05:11:19;49.14;43.35;52.24;;
72686;Laerm;61365;52.162;4.500;2023-04-07T05:13:46;49.28;41.59;52.19;;
72686;Laerm;61365;52.162;4.500;2023-04-07T05:16:12;49.34;43.65;52.60;;
72686;Laerm;61365;52.162;4.500;2023-04-07T05:18:38;49.28;42.56;52.40;;
72686;Laerm;61365;52.162;4.500;2023-04-07T05:21:04;49.46;40.62;52.27;;
72686;Laerm;61365;52.162;4.500;2023-04-07T05:23:30;49.50;44.05;52.66;;
72686;Laerm;61365;52.162;4.500;2023-04-07T05:25:57;49.49;43.91;52.38;;
72686;Laerm;61365;52.162;4.500;2023-04-07T05:28:23;49.34;42.98;52.33;;
72686;Laerm;61365;52.162;4.500;2023-04-07T05:30:50;49.39;43.69;52.12;;
72686;Laerm;61365;52.162;4.500;2023-04-07T05:33:16;49.45;43.98;53.22;;
72686;Laerm;61365;52.162;4.500;2023-04-07T05:35:45;49.47;43.94;52.93;;
72686;Laerm;61365;52.162;4.500;2023-04-07T05:38:12;49.58;42.58;52.19;;
72686;Laerm;61365;52.162;4.500;2023-04-07T05:40:38;49.54;43.36;52.56;;
72686;Laerm;61365;52.162;4.500;2023-04-07T05:43:04;49.54;44.33;52.17;;
72686;Laerm;61365;52.162;4.500;2023-04-07T05:45:31;49.46;43.15;52.29;;
72686;Laerm;61365;52.162;4.500;2023-04-07T05:47:57;49.43;42.38;52.26;;
72686;Laerm;61365;52.162;4.500;2023-04-07T05:50:23;49.51;43.35;53.43;;
72686;Laerm;61365;52.162;4.500;2023-04-07T05:52:49;49.53;43.31;54.29;;
72686;Laerm;61365;52.162;4.500;2023-04-07T05:55:15;49.41;42.25;52.33;;
72686;Laerm;61365;52.162;4.500;2023-04-07T05:57:41;49.21;42.93;52.19;;
72686;Laerm;61365;52.162;4.500;2023-04-07T06:00:08;49.10;42.94;52.07;;
72686;Laerm;61365;52.162;4.500;2023-04-07T06:02:34;49.21;43.17;52.14;;
72686;Laerm;61365;52.162;4.500;2023-04-07T06:05:00;49.32;44.57;52.68;;
72686;Laerm;61365;52.162;4.500;2023-04-07T06:07:27;49.33;44.15;52.26;;
72686;Laerm;61365;52.162;4.500;2023-04-07T06:09:53;49.30;42.60;52.27;;
72686;Laerm;61365;52.162;4.500;2023-04-07T06:12:19;49.37;43.42;52.35;;
72686;Laerm;61365;52.162;4.500;2023-04-07T06:14:54;49.40;43.70;52.72;;
72686;Laerm;61365;52.162;4.500;2023-04-07T06:17:22;49.42;43.22;52.50;;
72686;Laerm;61365;52.162;4.500;2023-04-07T06:19:48;49.44;43.34;53.00;;
72686;Laerm;61365;52.162;4.500;2023-04-07T06:22:15;49.37;43.25;52.27;;
72686;Laerm;61365;52.162;4.500;2023-04-07T06:24:41;49.26;43.29;52.25;;
72686;Laerm;61365;52.162;4.500;2023-04-07T06:27:07;49.38;43.49;52.58;;
72686;Laerm;61365;52.162;4.500;2023-04-07T06:29:33;49.28;42.08;52.85;;
72686;Laerm;61365;52.162;4.500;2023-04-07T06:32:00;49.58;42.80;52.62;;
72686;Laerm;61365;52.162;4.500;2023-04-07T06:34:27;49.46;44.20;53.08;;
72686;Laerm;61365;52.162;4.500;2023-04-07T06:36:53;49.42;43.59;52.24;;
72686;Laerm;61365;52.162;4.500;2023-04-07T06:39:19;49.80;43.03;53.02;;
72686;Laerm;61365;52.162;4.500;2023-04-07T06:41:46;49.87;43.33;53.09;;
72686;Laerm;61365;52.162;4.500;2023-04-07T06:44:12;49.65;42.19;52.71;;
72686;Laerm;61365;52.162;4.500;2023-04-07T06:46:38;49.00;41.85;52.54;;
72686;Laerm;61365;52.162;4.500;2023-04-07T06:49:04;48.96;40.17;53.11;;
72686;Laerm;61365;52.162;4.500;2023-04-07T06:51:30;49.17;42.17;52.56;;
72686;Laerm;61365;52.162;4.500;2023-04-07T06:53:57;49.21;41.65;52.73;;
72686;Laerm;61365;52.162;4.500;2023-04-07T06:56:23;48.44;36.06;54.59;;
72686;Laerm;61365;52.162;4.500;2023-04-07T06:58:49;48.12;39.91;51.88;;
72686;Laerm;61365;52.162;4.500;2023-04-07T07:01:15;48.12;37.29;52.67;;
72686;Laerm;61365;52.162;4.500;2023-04-07T07:03:42;48.06;39.76;52.81;;
72686;Laerm;61365;52.162;4.500;2023-04-07T07:06:08;48.31;41.01;52.22;;
72686;Laerm;61365;52.162;4.500;2023-04-07T07:08:36;48.13;40.24;51.83;;
72686;Laerm;61365;52.162;4.500;2023-04-07T07:11:03;48.42;40.32;52.91;;
72686;Laerm;61365;52.162;4.500;2023-04-07T07:13:29;48.48;41.53;51.69;;
72686;Laerm;61365;52.162;4.500;2023-04-07T07:15:55;48.33;38.11;52.25;;
72686;Laerm;61365;52.162;4.500;2023-04-07T07:18:21;48.40;40.13;52.95;;
72686;Laerm;61365;52.162;4.500;2023-04-07T07:20:47;49.04;41.23;53.73;;
72686;Laerm;61365;52.162;4.500;2023-04-07T07:23:14;49.12;39.72;52.57;;
72686;Laerm;61365;52.162;4.500;2023-04-07T07:25:40;48.94;41.36;52.51;;
72686;Laerm;61365;52.162;4.500;2023-04-07T07:28:06;48.23;39.61;53.76;;
72686;Laerm;61365;52.162;4.500;2023-04-07T07:30:34;48.25;38.67;52.25;;
72686;Laerm;61365;52.162;4.500;2023-04-07T07:33:00;48.35;40.96;52.93;;
72686;Laerm;61365;52.162;4.500;2023-04-07T07:35:26;48.14;39.44;52.80;;
72686;Laerm;61365;52.162;4.500;2023-04-07T07:37:52;48.36;38.80;52.99;;
72686;Laerm;61365;52.162;4.500;2023-04-07T07:40:18;48.25;39.97;53.62;;
72686;Laerm;61365;52.162;4.500;2023-04-07T07:42:45;48.08;41.05;52.87;;
72686;Laerm;61365;52.162;4.500;2023-04-07T07:45:11;48.22;41.83;53.19;;
72686;Laerm;61365;52.162;4.500;2023-04-07T07:47:39;48.54;40.73;53.37;;
72686;Laerm;61365;52.162;4.500;2023-04-07T07:50:05;48.19;41.53;52.10;;
72686;Laerm;61365;52.162;4.500;2023-04-07T07:52:32;48.52;41.25;52.44;;
72686;Laerm;61365;52.162;4.500;2023-04-07T07:54:58;48.24;39.80;53.12;;
72686;Laerm;61365;52.162;4.500;2023-04-07T07:57:24;48.24;39.98;53.64;;
72686;Laerm;61365;52.162;4.500;2023-04-07T07:59:51;48.29;39.81;52.59;;
72686;Laerm;61365;52.162;4.500;2023-04-07T08:02:17;48.55;39.12;53.17;;
72686;Laerm;61365;52.162;4.500;2023-04-07T08:04:43;48.62;41.69;52.54;;
72686;Laerm;61365;52.162;4.500;2023-04-07T08:07:09;48.40;39.81;52.93;;
72686;Laerm;61365;52.162;4.500;2023-04-07T08:09:37;48.52;41.33;53.05;;
72686;Laerm;61365;52.162;4.500;2023-04-07T08:12:03;48.79;40.22;53.09;;
72686;Laerm;61365;52.162;4.500;2023-04-07T08:14:29;48.73;41.88;53.81;;
72686;Laerm;61365;52.162;4.500;2023-04-07T08:16:55;48.59;42.26;53.73;;
72686;Laerm;61365;52.162;4.500;2023-04-07T08:19:21;48.57;43.34;52.89;;
72686;Laerm;61365;52.162;4.500;2023-04-07T08:21:48;48.61;43.24;53.03;;
72686;Laerm;61365;52.162;4.500;2023-04-07T08:24:14;48.67;42.91;54.00;;
72686;Laerm;61365;52.162;4.500;2023-04-07T08:26:41;48.67;41.47;53.33;;
72686;Laerm;61365;52.162;4.500;2023-04-07T08:29:07;48.54;42.92;54.08;;
72686;Laerm;61365;52.162;4.500;2023-04-07T08:31:33;49.12;43.00;54.16;;
72686;Laerm;61365;52.162;4.500;2023-04-07T08:33:59;49.77;44.48;52.77;;
72686;Laerm;61365;52.162;4.500;2023-04-07T08:36:26;49.76;44.61;52.82;;
72686;Laerm;61365;52.162;4.500;2023-04-07T08:38:52;48.73;43.27;53.37;;
72686;Laerm;61365;52.162;4.500;2023-04-07T08:41:23;48.80;43.83;54.19;;
72686;Laerm;61365;52.162;4.500;2023-04-07T08:43:52;48.53;42.23;53.21;;
72686;Laerm;61365;52.162;4.500;2023-04-07T08:46:21;48.65;42.49;53.78;;
72686;Laerm;61365;52.162;4.500;2023-04-07T08:48:51;48.49;41.53;53.50;;
72686;Laerm;61365;52.162;4.500;2023-04-07T08:51:30;48.63;43.09;52.96;;
72686;Laerm;61365;52.162;4.500;2023-04-07T08:54:11;48.66;42.89;52.95;;
72686;Laerm;61365;52.162;4.500;2023-04-07T08:56:39;48.71;42.52;53.19;;
72686;Laerm;61365;52.162;4.500;2023-04-07T08:59:10;48.58;43.02;54.21;;
72686;Laerm;61365;52.162;4.500;2023-04-07T09:01:36;48.70;42.30;53.55;;
72686;Laerm;61365;52.162;4.500;2023-04-07T09:04:03;49.65;43.13;53.37;;
72686;Laerm;61365;52.162;4.500;2023-04-07T09:06:30;49.52;43.96;52.60;;
72686;Laerm;61365;52.162;4.500;2023-04-07T09:08:57;49.52;42.65;52.60;;
72686;Laerm;61365;52.162;4.500;2023-04-07T09:11:25;49.62;43.75;52.69;;
72686;Laerm;61365;52.162;4.500;2023-04-07T09:13:52;49.61;44.73;53.12;;
72686;Laerm;61365;52.162;4.500;2023-04-07T09:16:19;49.68;43.18;52.66;;
72686;Laerm;61365;52.162;4.500;2023-04-07T09:18:46;48.67;42.00;53.58;;
72686;Laerm;61365;52.162;4.500;2023-04-07T09:21:12;48.38;41.87;52.81;;
72686;Laerm;61365;52.162;4.500;2023-04-07T09:23:39;49.60;43.52;52.73;;
72686;Laerm;61365;52.162;4.500;2023-04-07T09:26:20;49.68;44.40;53.10;;
72686;Laerm;61365;52.162;4.500;2023-04-07T09:28:53;49.51;44.18;52.61;;
72686;Laerm;61365;52.162;4.500;2023-04-07T09:31:22;49.45;44.86;52.05;;
72686;Laerm;61365;52.162;4.500;2023-04-07T09:33:51;49.63;44.33;52.62;;
72686;Laerm;61365;52.162;4.500;2023-04-07T09:36:18;49.68;44.26;52.59;;
72686;Laerm;61365;52.162;4.500;2023-04-07T09:38:44;49.65;44.10;52.71;;
72686;Laerm;61365;52.162;4.500;2023-04-07T09:41:13;49.70;43.05;52.50;;
72686;Laerm;61365;52.162;4.500;2023-04-07T09:43:45;49.77;45.30;52.53;;
72686;Laerm;61365;52.162;4.500;2023-04-07T09:46:16;49.65;43.29;52.78;;
72686;Laerm;61365;52.162;4.500;2023-04-07T09:48:44;49.72;44.75;52.96;;
72686;Laerm;61365;52.162;4.500;2023-04-07T09:51:15;49.59;43.85;52.46;;
72686;Laerm;61365;52.162;4.500;2023-04-07T09:53:47;49.57;44.24;52.35;;
72686;Laerm;61365;52.162;4.500;2023-04-07T09:56:18;49.53;44.65;52.38;;
72686;Laerm;61365;52.162;4.500;2023-04-07T09:58:48;49.49;42.85;52.82;;
72686;Laerm;61365;52.162;4.500;2023-04-07T10:01:16;50.60;45.15;53.66;;
72686;Laerm;61365;52.162;4.500;2023-04-07T10:03:44;50.91;44.94;54.02;;
72686;Laerm;61365;52.162;4.500;2023-04-07T10:06:11;50.95;45.14;53.98;;
72686;Laerm;61365;52.162;4.500;2023-04-07T10:08:40;50.82;44.34;53.77;;
72686;Laerm;61365;52.162;4.500;2023-04-07T10:11:08;50.94;45.98;54.26;;
72686;Laerm;61365;52.162;4.500;2023-04-07T10:13:36;50.77;43.85;53.76;;
72686;Laerm;61365;52.162;4.500;2023-04-07T10:16:04;50.18;45.50;53.78;;
72686;Laerm;61365;52.162;4.500;2023-04-07T10:18:33;50.87;43.88;53.52;;
72686;Laerm;61365;52.162;4.500;2023-04-07T10:21:01;50.72;45.86;53.54;;
72686;Laerm;61365;52.162;4.500;2023-04-07T10:23:31;51.00;44.68;54.91;;
72686;Laerm;61365;52.162;4.500;2023-04-07T10:26:02;50.95;44.36;54.51;;
72686;Laerm;61365;52.162;4.500;2023-04-07T10:28:33;50.84;46.59;54.65;;
72686;Laerm;61365;52.162;4.500;2023-04-07T10:31:02;50.49;44.97;54.16;;
72686;Laerm;61365;52.162;4.500;2023-04-07T10:33:49;49.62;44.41;54.78;;
72686;Laerm;61365;52.162;4.500;2023-04-07T10:36:17;49.91;43.60;54.26;;
72686;Laerm;61365;52.162;4.500;2023-04-07T10:41:35;49.78;43.97;54.14;;
72686;Laerm;61365;52.162;4.500;2023-04-07T10:44:06;49.91;44.65;53.68;;
72686;Laerm;61365;52.162;4.500;2023-04-07T10:49:12;49.48;45.18;53.90;;
72686;Laerm;61365;52.162;4.500;2023-04-07T10:51:39;49.67;44.95;53.90;;
72686;Laerm;61365;52.162;4.500;2023-04-07T10:54:21;50.00;45.27;54.89;;
72686;Laerm;61365;52.162;4.500;2023-04-07T10:57:03;50.05;44.77;53.57;;
72686;Laerm;61365;52.162;4.500;2023-04-07T10:59:30;50.01;44.87;53.12;;
72686;Laerm;61365;52.162;4.500;2023-04-07T11:04:43;50.06;43.76;53.78;;
72686;Laerm;61365;52.162;4.500;2023-04-07T11:07:11;49.98;44.80;53.31;;
72686;Laerm;61365;52.162;4.500;2023-04-07T11:09:39;49.92;44.38;53.97;;
72686;Laerm;61365;52.162;4.500;2023-04-07T11:12:06;49.92;43.94;54.56;;
72686;Laerm;61365;52.162;4.500;2023-04-07T11:14:32;49.69;43.27;54.60;;
72686;Laerm;61365;52.162;4.500;2023-04-07T11:16:59;49.86;44.19;54.11;;
72686;Laerm;61365;52.162;4.500;2023-04-07T11:19:28;49.83;44.03;54.52;;
72686;Laerm;61365;52.162;4.500;2023-04-07T11:22:15;49.82;44.44;53.97;;
72686;Laerm;61365;52.162;4.500;2023-04-07T11:24:41;49.73;44.06;53.81;;
72686;Laerm;61365;52.162;4.500;2023-04-07T11:27:12;49.68;44.28;53.63;;
72686;Laerm;61365;52.162;4.500;2023-04-07T11:29:38;50.29;44.24;53.82;;
72686;Laerm;61365;52.162;4.500;2023-04-07T11:32:05;50.92;45.95;53.72;;
72686;Laerm;61365;52.162;4.500;2023-04-07T11:34:32;50.61;44.84;53.62;;
72686;Laerm;61365;52.162;4.500;2023-04-07T11:37:18;50.89;46.37;53.69;;
72686;Laerm;61365;52.162;4.500;2023-04-07T11:39:51;50.87;45.31;54.14;;
72686;Laerm;61365;52.162;4.500;2023-04-07T11:42:33;50.85;46.32;53.61;;
72686;Laerm;61365;52.162;4.500;2023-04-07T11:44:59;51.06;45.41;53.89;;
72686;Laerm;61365;52.162;4.500;2023-04-07T11:47:39;50.88;46.45;53.98;;
72686;Laerm;61365;52.162;4.500;2023-04-07T11:50:06;50.97;45.55;54.01;;
72686;Laerm;61365;52.162;4.500;2023-04-07T11:55:22;51.03;45.17;53.70;;
72686;Laerm;61365;52.162;4.500;2023-04-07T11:57:49;51.06;45.92;62.66;;
72686;Laerm;61365;52.162;4.500;2023-04-07T12:00:17;51.04;45.67;53.86;;
72686;Laerm;61365;52.162;4.500;2023-04-07T12:02:44;51.00;44.76;53.63;;
72686;Laerm;61365;52.162;4.500;2023-04-07T12:05:10;51.10;46.42;53.70;;
72686;Laerm;61365;52.162;4.500;2023-04-07T12:07:37;51.02;44.28;53.68;;
72686;Laerm;61365;52.162;4.500;2023-04-07T12:10:23;50.77;45.88;53.94;;
72686;Laerm;61365;52.162;4.500;2023-04-07T12:12:52;50.50;45.04;53.80;;
72686;Laerm;61365;52.162;4.500;2023-04-07T12:15:18;50.84;46.41;54.07;;
72686;Laerm;61365;52.162;4.500;2023-04-07T12:17:46;50.79;44.94;53.91;;
72686;Laerm;61365;52.162;4.500;2023-04-07T12:20:13;50.69;45.47;53.83;;
72686;Laerm;61365;52.162;4.500;2023-04-07T12:22:40;50.90;44.78;53.74;;
72686;Laerm;61365;52.162;4.500;2023-04-07T12:25:07;51.05;46.23;54.11;;
72686;Laerm;61365;52.162;4.500;2023-04-07T12:27:33;51.11;47.19;54.62;;
72686;Laerm;61365;52.162;4.500;2023-04-07T12:29:59;51.07;45.77;54.69;;
72686;Laerm;61365;52.162;4.500;2023-04-07T12:32:26;50.90;45.82;53.77;;
72686;Laerm;61365;52.162;4.500;2023-04-07T12:34:53;50.93;45.66;53.87;;
72686;Laerm;61365;52.162;4.500;2023-04-07T12:37:19;50.78;45.49;54.06;;
72686;Laerm;61365;52.162;4.500;2023-04-07T12:39:45;50.83;46.81;53.74;;
72686;Laerm;61365;52.162;4.500;2023-04-07T12:42:11;50.83;45.40;53.96;;
72686;Laerm;61365;52.162;4.500;2023-04-07T12:44:38;50.76;45.93;53.45;;
72686;Laerm;61365;52.162;4.500;2023-04-07T12:47:04;50.80;46.67;53.37;;
72686;Laerm;61365;52.162;4.500;2023-04-07T12:49:30;50.94;46.94;53.77;;
72686;Laerm;61365;52.162;4.500;2023-04-07T12:51:56;50.82;46.25;53.65;;
72686;Laerm;61365;52.162;4.500;2023-04-07T12:54:23;50.80;44.63;53.62;;
72686;Laerm;61365;52.162;4.500;2023-04-07T12:56:49;50.84;46.66;53.74;;
72686;Laerm;61365;52.162;4.500;2023-04-07T12:59:16;50.85;45.28;53.84;;
72686;Laerm;61365;52.162;4.500;2023-04-07T13:01:42;50.70;44.87;53.69;;
72686;Laerm;61365;52.162;4.500;2023-04-07T13:04:08;50.58;45.45;53.69;;
72686;Laerm;61365;52.162;4.500;2023-04-07T13:06:34;50.65;45.81;54.03;;
72686;Laerm;61365;52.162;4.500;2023-04-07T13:09:01;50.58;45.96;53.52;;
72686;Laerm;61365;52.162;4.500;2023-04-07T13:11:27;50.57;45.08;53.62;;
72686;Laerm;61365;52.162;4.500;2023-04-07T13:13:53;50.58;46.08;54.63;;
72686;Laerm;61365;52.162;4.500;2023-04-07T13:16:19;50.32;45.28;53.08;;
72686;Laerm;61365;52.162;4.500;2023-04-07T13:18:45;50.64;46.21;53.19;;
72686;Laerm;61365;52.162;4.500;2023-04-07T13:21:12;50.56;45.42;53.56;;
72686;Laerm;61365;52.162;4.500;2023-04-07T13:23:38;50.56;45.44;53.87;;
72686;Laerm;61365;52.162;4.500;2023-04-07T13:26:04;50.53;46.24;53.26;;
72686;Laerm;61365;52.162;4.500;2023-04-07T13:28:30;50.18;44.86;56.45;;
72686;Laerm;61365;52.162;4.500;2023-04-07T13:30:56;50.29;45.09;53.18;;
72686;Laerm;61365;52.162;4.500;2023-04-07T13:33:22;50.37;44.65;54.26;;
72686;Laerm;61365;52.162;4.500;2023-04-07T13:35:49;50.40;45.95;53.44;;
72686;Laerm;61365;52.162;4.500;2023-04-07T13:38:15;50.40;45.49;53.56;;
72686;Laerm;61365;52.162;4.500;2023-04-07T13:40:41;50.37;45.84;53.48;;
72686;Laerm;61365;52.162;4.500;2023-04-07T13:43:09;50.30;44.75;53.44;;
72686;Laerm;61365;52.162;4.500;2023-04-07T13:45:37;50.17;43.75;53.33;;
72686;Laerm;61365;52.162;4.500;2023-04-07T13:48:03;49.27;44.50;53.02;;
72686;Laerm;61365;52.162;4.500;2023-04-07T13:50:29;49.31;43.85;53.44;;
72686;Laerm;61365;52.162;4.500;2023-04-07T13:52:56;49.31;44.56;52.98;;
72686;Laerm;61365;52.162;4.500;2023-04-07T13:55:22;49.76;44.63;53.38;;
72686;Laerm;61365;52.162;4.500;2023-04-07T13:57:48;50.34;45.72;53.07;;
72686;Laerm;61365;52.162;4.500;2023-04-07T14:00:15;50.52;45.37;53.52;;
72686;Laerm;61365;52.162;4.500;2023-04-07T14:02:41;50.33;45.01;53.35;;
72686;Laerm;61365;52.162;4.500;2023-04-07T14:05:07;50.39;44.06;53.42;;
72686;Laerm;61365;52.162;4.500;2023-04-07T14:07:33;50.43;45.10;53.98;;